sensor_id;sensor_type;location;lat;lon;timestamp;P1;durP1;ratioP1;P2;durP2;ratioP2
62941;SDS011;49042;47.318;19.874;2022-09-03T00:01:52;6.85;;;4.25;;
62941;SDS011;49042;47.318;19.874;2022-09-03T00:05:11;9.05;;;4.00;;
62941;SDS011;49042;47.318;19.874;2022-09-03T00:08:29;6.40;;;4.20;;
62941;SDS011;49042;47.318;19.874;2022-09-03T00:15:17;6.37;;;3.72;;
62941;SDS011;49042;47.318;19.874;2022-09-03T00:18:23;9.38;;;4.47;;
62941;SDS011;49042;47.318;19.874;2022-09-03T00:24:41;8.48;;;4.40;;
62941;SDS011;49042;47.318;19.874;2022-09-03T00:27:44;9.45;;;3.83;;
62941;SDS011;49042;47.318;19.874;2022-09-03T00:30:55;6.20;;;4.10;;
62941;SDS011;49042;47.318;19.874;2022-09-03T00:37:34;12.05;;;4.75;;
62941;SDS011;49042;47.318;19.874;2022-09-03T00:43:47;6.80;;;4.00;;
62941;SDS011;49042;47.318;19.874;2022-09-03T00:47:03;5.50;;;4.07;;
62941;SDS011;49042;47.318;19.874;2022-09-03T00:53:41;7.68;;;3.53;;
62941;SDS011;49042;47.318;19.874;2022-09-03T00:57:00;8.15;;;4.03;;
62941;SDS011;49042;47.318;19.874;2022-09-03T01:00:13;5.82;;;3.97;;
62941;SDS011;49042;47.318;19.874;2022-09-03T01:03:24;11.48;;;4.12;;
62941;SDS011;49042;47.318;19.874;2022-09-03T01:06:43;6.53;;;3.67;;
62941;SDS011;49042;47.318;19.874;2022-09-03T01:10:18;6.37;;;4.28;;
62941;SDS011;49042;47.318;19.874;2022-09-03T01:13:36;4.87;;;3.62;;
62941;SDS011;49042;47.318;19.874;2022-09-03T01:16:57;7.00;;;4.32;;
62941;SDS011;49042;47.318;19.874;2022-09-03T01:27:43;5.72;;;3.90;;
62941;SDS011;49042;47.318;19.874;2022-09-03T01:30:49;7.28;;;3.92;;
62941;SDS011;49042;47.318;19.874;2022-09-03T01:34:04;9.07;;;3.75;;
62941;SDS011;49042;47.318;19.874;2022-09-03T01:44:40;5.10;;;3.60;;
62941;SDS011;49042;47.318;19.874;2022-09-03T01:48:09;8.88;;;3.95;;
62941;SDS011;49042;47.318;19.874;2022-09-03T01:51:23;5.37;;;3.10;;
62941;SDS011;49042;47.318;19.874;2022-09-03T01:57:44;5.65;;;3.83;;
62941;SDS011;49042;47.318;19.874;2022-09-03T02:00:53;8.02;;;4.10;;
62941;SDS011;49042;47.318;19.874;2022-09-03T02:04:01;6.10;;;3.75;;
62941;SDS011;49042;47.318;19.874;2022-09-03T02:07:03;8.75;;;3.75;;
62941;SDS011;49042;47.318;19.874;2022-09-03T02:10:28;6.68;;;3.97;;
62941;SDS011;49042;47.318;19.874;2022-09-03T02:13:50;7.12;;;3.92;;
62941;SDS011;49042;47.318;19.874;2022-09-03T02:16:55;6.75;;;4.35;;
62941;SDS011;49042;47.318;19.874;2022-09-03T02:20:02;5.18;;;3.50;;
62941;SDS011;49042;47.318;19.874;2022-09-03T02:23:07;7.37;;;4.07;;
62941;SDS011;49042;47.318;19.874;2022-09-03T02:26:10;7.40;;;4.00;;
62941;SDS011;49042;47.318;19.874;2022-09-03T02:29:14;5.85;;;3.22;;
62941;SDS011;49042;47.318;19.874;2022-09-03T02:32:17;6.05;;;3.58;;
62941;SDS011;49042;47.318;19.874;2022-09-03T02:35:19;6.00;;;3.58;;
62941;SDS011;49042;47.318;19.874;2022-09-03T02:38:22;6.65;;;3.50;;
62941;SDS011;49042;47.318;19.874;2022-09-03T02:41:26;10.27;;;3.72;;
62941;SDS011;49042;47.318;19.874;2022-09-03T02:44:29;6.37;;;3.75;;
62941;SDS011;49042;47.318;19.874;2022-09-03T02:47:38;9.40;;;3.55;;
62941;SDS011;49042;47.318;19.874;2022-09-03T02:50:43;5.37;;;3.45;;
62941;SDS011;49042;47.318;19.874;2022-09-03T02:53:45;4.50;;;3.42;;
62941;SDS011;49042;47.318;19.874;2022-09-03T02:56:47;7.72;;;3.60;;
62941;SDS011;49042;47.318;19.874;2022-09-03T02:59:50;9.00;;;3.30;;
62941;SDS011;49042;47.318;19.874;2022-09-03T03:02:51;8.10;;;3.45;;
62941;SDS011;49042;47.318;19.874;2022-09-03T03:05:55;5.07;;;3.10;;
62941;SDS011;49042;47.318;19.874;2022-09-03T03:09:00;9.13;;;3.67;;
62941;SDS011;49042;47.318;19.874;2022-09-03T03:12:06;5.45;;;3.67;;
62941;SDS011;49042;47.318;19.874;2022-09-03T03:15:09;5.85;;;3.10;;
62941;SDS011;49042;47.318;19.874;2022-09-03T03:18:11;5.97;;;3.33;;
62941;SDS011;49042;47.318;19.874;2022-09-03T03:21:15;6.65;;;3.28;;
62941;SDS011;49042;47.318;19.874;2022-09-03T03:24:18;4.30;;;3.35;;
62941;SDS011;49042;47.318;19.874;2022-09-03T03:27:20;7.25;;;3.62;;
62941;SDS011;49042;47.318;19.874;2022-09-03T03:30:21;5.15;;;3.47;;
62941;SDS011;49042;47.318;19.874;2022-09-03T03:33:24;10.57;;;3.90;;
62941;SDS011;49042;47.318;19.874;2022-09-03T03:36:27;5.82;;;3.42;;
62941;SDS011;49042;47.318;19.874;2022-09-03T03:39:30;12.65;;;3.72;;
62941;SDS011;49042;47.318;19.874;2022-09-03T03:42:33;6.78;;;3.85;;
62941;SDS011;49042;47.318;19.874;2022-09-03T03:45:35;4.90;;;3.25;;
62941;SDS011;49042;47.318;19.874;2022-09-03T03:48:37;4.25;;;3.85;;
62941;SDS011;49042;47.318;19.874;2022-09-03T03:51:39;4.30;;;3.50;;
62941;SDS011;49042;47.318;19.874;2022-09-03T03:54:41;8.88;;;3.55;;
62941;SDS011;49042;47.318;19.874;2022-09-03T03:57:43;5.53;;;3.65;;
62941;SDS011;49042;47.318;19.874;2022-09-03T04:00:45;7.20;;;4.05;;
62941;SDS011;49042;47.318;19.874;2022-09-03T04:03:48;6.30;;;4.03;;
62941;SDS011;49042;47.318;19.874;2022-09-03T04:06:50;5.87;;;4.18;;
62941;SDS011;49042;47.318;19.874;2022-09-03T04:09:52;5.87;;;3.90;;
62941;SDS011;49042;47.318;19.874;2022-09-03T04:12:54;6.47;;;3.58;;
62941;SDS011;49042;47.318;19.874;2022-09-03T04:16:03;7.22;;;4.00;;
62941;SDS011;49042;47.318;19.874;2022-09-03T04:19:06;5.70;;;3.40;;
62941;SDS011;49042;47.318;19.874;2022-09-03T04:22:08;7.47;;;3.97;;
62941;SDS011;49042;47.318;19.874;2022-09-03T04:25:10;5.35;;;3.37;;
62941;SDS011;49042;47.318;19.874;2022-09-03T04:28:12;6.20;;;3.65;;
62941;SDS011;49042;47.318;19.874;2022-09-03T04:31:16;6.40;;;3.35;;
62941;SDS011;49042;47.318;19.874;2022-09-03T04:34:19;6.60;;;3.95;;
62941;SDS011;49042;47.318;19.874;2022-09-03T04:37:21;5.68;;;3.65;;
62941;SDS011;49042;47.318;19.874;2022-09-03T04:40:23;7.53;;;4.00;;
62941;SDS011;49042;47.318;19.874;2022-09-03T04:43:25;4.82;;;3.47;;
62941;SDS011;49042;47.318;19.874;2022-09-03T04:46:28;7.62;;;3.65;;
62941;SDS011;49042;47.318;19.874;2022-09-03T04:49:34;7.65;;;4.12;;
62941;SDS011;49042;47.318;19.874;2022-09-03T04:52:36;9.27;;;3.92;;
62941;SDS011;49042;47.318;19.874;2022-09-03T04:55:38;15.75;;;4.90;;
62941;SDS011;49042;47.318;19.874;2022-09-03T04:58:41;6.15;;;4.22;;
62941;SDS011;49042;47.318;19.874;2022-09-03T05:01:44;6.45;;;4.15;;
62941;SDS011;49042;47.318;19.874;2022-09-03T05:04:46;5.97;;;4.20;;
62941;SDS011;49042;47.318;19.874;2022-09-03T05:07:48;5.60;;;3.37;;
62941;SDS011;49042;47.318;19.874;2022-09-03T05:10:56;6.97;;;4.07;;
62941;SDS011;49042;47.318;19.874;2022-09-03T05:14:00;5.75;;;3.80;;
62941;SDS011;49042;47.318;19.874;2022-09-03T05:17:01;5.82;;;3.75;;
62941;SDS011;49042;47.318;19.874;2022-09-03T05:20:04;11.20;;;4.10;;
62941;SDS011;49042;47.318;19.874;2022-09-03T05:23:08;11.25;;;3.97;;
62941;SDS011;49042;47.318;19.874;2022-09-03T05:26:11;10.15;;;4.25;;
62941;SDS011;49042;47.318;19.874;2022-09-03T05:29:16;33.42;;;4.87;;
62941;SDS011;49042;47.318;19.874;2022-09-03T05:32:19;29.67;;;4.65;;
62941;SDS011;49042;47.318;19.874;2022-09-03T05:35:21;34.38;;;4.43;;
62941;SDS011;49042;47.318;19.874;2022-09-03T05:38:30;11.12;;;3.50;;
62941;SDS011;49042;47.318;19.874;2022-09-03T05:41:32;6.50;;;3.83;;
62941;SDS011;49042;47.318;19.874;2022-09-03T05:44:35;16.10;;;4.00;;
62941;SDS011;49042;47.318;19.874;2022-09-03T05:47:37;9.40;;;4.03;;
62941;SDS011;49042;47.318;19.874;2022-09-03T05:50:39;6.05;;;3.53;;
62941;SDS011;49042;47.318;19.874;2022-09-03T05:53:45;8.35;;;3.30;;
62941;SDS011;49042;47.318;19.874;2022-09-03T05:56:48;6.25;;;3.47;;
62941;SDS011;49042;47.318;19.874;2022-09-03T05:59:50;4.60;;;3.35;;
62941;SDS011;49042;47.318;19.874;2022-09-03T06:02:53;8.90;;;3.45;;
62941;SDS011;49042;47.318;19.874;2022-09-03T06:05:55;4.62;;;3.37;;
62941;SDS011;49042;47.318;19.874;2022-09-03T06:08:58;4.60;;;2.97;;
62941;SDS011;49042;47.318;19.874;2022-09-03T06:12:03;8.68;;;3.50;;
62941;SDS011;49042;47.318;19.874;2022-09-03T06:15:05;7.82;;;3.45;;
62941;SDS011;49042;47.318;19.874;2022-09-03T06:18:07;3.97;;;3.33;;
62941;SDS011;49042;47.318;19.874;2022-09-03T06:21:09;5.47;;;3.30;;
62941;SDS011;49042;47.318;19.874;2022-09-03T06:24:15;6.18;;;3.42;;
62941;SDS011;49042;47.318;19.874;2022-09-03T06:27:18;6.82;;;3.22;;
62941;SDS011;49042;47.318;19.874;2022-09-03T06:30:22;5.70;;;3.30;;
62941;SDS011;49042;47.318;19.874;2022-09-03T06:33:24;4.90;;;3.40;;
62941;SDS011;49042;47.318;19.874;2022-09-03T06:36:26;14.13;;;3.42;;
62941;SDS011;49042;47.318;19.874;2022-09-03T06:39:29;5.45;;;3.45;;
62941;SDS011;49042;47.318;19.874;2022-09-03T06:42:31;10.68;;;3.25;;
62941;SDS011;49042;47.318;19.874;2022-09-03T06:45:33;10.82;;;3.47;;
62941;SDS011;49042;47.318;19.874;2022-09-03T06:48:36;11.07;;;3.33;;
62941;SDS011;49042;47.318;19.874;2022-09-03T06:51:39;8.77;;;3.05;;
62941;SDS011;49042;47.318;19.874;2022-09-03T06:54:41;4.82;;;3.25;;
62941;SDS011;49042;47.318;19.874;2022-09-03T06:57:43;5.90;;;2.95;;
62941;SDS011;49042;47.318;19.874;2022-09-03T07:00:45;6.93;;;3.00;;
62941;SDS011;49042;47.318;19.874;2022-09-03T07:03:48;8.93;;;2.90;;
62941;SDS011;49042;47.318;19.874;2022-09-03T07:06:56;4.60;;;3.05;;
62941;SDS011;49042;47.318;19.874;2022-09-03T07:09:58;4.05;;;2.67;;
62941;SDS011;49042;47.318;19.874;2022-09-03T07:13:00;9.07;;;3.00;;
62941;SDS011;49042;47.318;19.874;2022-09-03T07:16:02;5.05;;;2.90;;
62941;SDS011;49042;47.318;19.874;2022-09-03T07:19:09;32.85;;;3.67;;
62941;SDS011;49042;47.318;19.874;2022-09-03T07:22:13;13.27;;;2.97;;
62941;SDS011;49042;47.318;19.874;2022-09-03T07:25:15;7.30;;;2.95;;
62941;SDS011;49042;47.318;19.874;2022-09-03T07:28:17;5.70;;;2.55;;
62941;SDS011;49042;47.318;19.874;2022-09-03T07:31:20;3.95;;;2.70;;
62941;SDS011;49042;47.318;19.874;2022-09-03T07:34:27;5.57;;;2.58;;
62941;SDS011;49042;47.318;19.874;2022-09-03T07:37:29;9.90;;;2.45;;
62941;SDS011;49042;47.318;19.874;2022-09-03T07:40:31;4.60;;;2.62;;
62941;SDS011;49042;47.318;19.874;2022-09-03T07:43:51;5.47;;;2.92;;
62941;SDS011;49042;47.318;19.874;2022-09-03T07:46:53;6.80;;;2.97;;
62941;SDS011;49042;47.318;19.874;2022-09-03T07:49:55;4.30;;;2.75;;
62941;SDS011;49042;47.318;19.874;2022-09-03T07:52:57;4.50;;;3.00;;
62941;SDS011;49042;47.318;19.874;2022-09-03T07:56:03;4.87;;;2.78;;
62941;SDS011;49042;47.318;19.874;2022-09-03T07:59:07;4.55;;;2.45;;
62941;SDS011;49042;47.318;19.874;2022-09-03T08:02:09;10.63;;;2.58;;
62941;SDS011;49042;47.318;19.874;2022-09-03T08:05:11;4.93;;;2.60;;
62941;SDS011;49042;47.318;19.874;2022-09-03T08:08:13;6.62;;;2.60;;
62941;SDS011;49042;47.318;19.874;2022-09-03T08:11:17;6.37;;;2.72;;
62941;SDS011;49042;47.318;19.874;2022-09-03T08:14:22;6.95;;;2.45;;
62941;SDS011;49042;47.318;19.874;2022-09-03T08:17:23;9.13;;;2.58;;
62941;SDS011;49042;47.318;19.874;2022-09-03T08:20:26;5.35;;;2.55;;
62941;SDS011;49042;47.318;19.874;2022-09-03T08:23:30;5.70;;;2.40;;
62941;SDS011;49042;47.318;19.874;2022-09-03T08:26:33;4.47;;;2.60;;
62941;SDS011;49042;47.318;19.874;2022-09-03T08:29:36;6.82;;;2.58;;
62941;SDS011;49042;47.318;19.874;2022-09-03T08:32:38;6.35;;;2.62;;
62941;SDS011;49042;47.318;19.874;2022-09-03T08:35:40;6.45;;;2.67;;
62941;SDS011;49042;47.318;19.874;2022-09-03T08:38:42;7.72;;;2.40;;
62941;SDS011;49042;47.318;19.874;2022-09-03T08:44:55;10.50;;;2.90;;
62941;SDS011;49042;47.318;19.874;2022-09-03T08:51:22;7.90;;;2.37;;
62941;SDS011;49042;47.318;19.874;2022-09-03T08:54:30;5.78;;;2.70;;
62941;SDS011;49042;47.318;19.874;2022-09-03T08:57:35;6.82;;;2.55;;
62941;SDS011;49042;47.318;19.874;2022-09-03T09:01:32;8.02;;;2.60;;
62941;SDS011;49042;47.318;19.874;2022-09-03T09:07:43;6.93;;;3.10;;
62941;SDS011;49042;47.318;19.874;2022-09-03T09:11:04;7.53;;;3.22;;
62941;SDS011;49042;47.318;19.874;2022-09-03T09:14:24;7.72;;;3.22;;
62941;SDS011;49042;47.318;19.874;2022-09-03T09:20:54;7.90;;;3.62;;
62941;SDS011;49042;47.318;19.874;2022-09-03T09:27:16;5.25;;;3.28;;
62941;SDS011;49042;47.318;19.874;2022-09-03T09:30:18;5.68;;;3.10;;
62941;SDS011;49042;47.318;19.874;2022-09-03T09:33:20;8.35;;;3.58;;
62941;SDS011;49042;47.318;19.874;2022-09-03T09:36:24;6.47;;;3.40;;
62941;SDS011;49042;47.318;19.874;2022-09-03T09:39:25;11.43;;;2.90;;
62941;SDS011;49042;47.318;19.874;2022-09-03T09:42:32;7.65;;;3.10;;
62941;SDS011;49042;47.318;19.874;2022-09-03T09:45:34;4.78;;;2.70;;
62941;SDS011;49042;47.318;19.874;2022-09-03T09:48:36;8.77;;;3.20;;
62941;SDS011;49042;47.318;19.874;2022-09-03T09:51:41;10.18;;;2.87;;
62941;SDS011;49042;47.318;19.874;2022-09-03T09:54:43;7.35;;;3.42;;
62941;SDS011;49042;47.318;19.874;2022-09-03T09:57:51;13.18;;;3.47;;
62941;SDS011;49042;47.318;19.874;2022-09-03T10:01:40;10.40;;;3.10;;
62941;SDS011;49042;47.318;19.874;2022-09-03T10:04:24;7.28;;;3.35;;
62941;SDS011;49042;47.318;19.874;2022-09-03T10:07:33;7.22;;;3.58;;
62941;SDS011;49042;47.318;19.874;2022-09-03T10:10:38;5.20;;;2.70;;
62941;SDS011;49042;47.318;19.874;2022-09-03T10:13:45;10.20;;;3.87;;
62941;SDS011;49042;47.318;19.874;2022-09-03T10:16:54;13.45;;;3.92;;
62941;SDS011;49042;47.318;19.874;2022-09-03T10:23:27;8.82;;;3.40;;
62941;SDS011;49042;47.318;19.874;2022-09-03T10:26:34;10.95;;;3.58;;
62941;SDS011;49042;47.318;19.874;2022-09-03T10:29:37;9.13;;;3.92;;
62941;SDS011;49042;47.318;19.874;2022-09-03T10:35:51;7.55;;;3.30;;
62941;SDS011;49042;47.318;19.874;2022-09-03T10:42:45;12.30;;;3.90;;
62941;SDS011;49042;47.318;19.874;2022-09-03T10:46:05;10.15;;;3.20;;
62941;SDS011;49042;47.318;19.874;2022-09-03T10:49:28;10.32;;;3.40;;
62941;SDS011;49042;47.318;19.874;2022-09-03T11:06:22;9.68;;;3.45;;
62941;SDS011;49042;47.318;19.874;2022-09-03T11:09:35;11.80;;;3.92;;
62941;SDS011;49042;47.318;19.874;2022-09-03T11:12:42;7.45;;;3.35;;
62941;SDS011;49042;47.318;19.874;2022-09-03T11:19:08;6.07;;;2.60;;
62941;SDS011;49042;47.318;19.874;2022-09-03T11:22:17;11.40;;;3.25;;
62941;SDS011;49042;47.318;19.874;2022-09-03T11:25:21;5.18;;;2.92;;
62941;SDS011;49042;47.318;19.874;2022-09-03T11:28:38;11.68;;;3.20;;
62941;SDS011;49042;47.318;19.874;2022-09-03T11:32:03;9.32;;;3.47;;
62941;SDS011;49042;47.318;19.874;2022-09-03T11:35:15;10.55;;;2.80;;
62941;SDS011;49042;47.318;19.874;2022-09-03T11:38:28;5.93;;;2.80;;
62941;SDS011;49042;47.318;19.874;2022-09-03T11:41:34;6.93;;;3.05;;
62941;SDS011;49042;47.318;19.874;2022-09-03T11:44:40;15.63;;;3.17;;
62941;SDS011;49042;47.318;19.874;2022-09-03T11:47:51;3.85;;;2.90;;
62941;SDS011;49042;47.318;19.874;2022-09-03T11:50:54;4.55;;;2.47;;
62941;SDS011;49042;47.318;19.874;2022-09-03T11:53:59;9.63;;;3.17;;
62941;SDS011;49042;47.318;19.874;2022-09-03T11:57:05;7.75;;;2.30;;
62941;SDS011;49042;47.318;19.874;2022-09-03T12:00:13;10.00;;;2.87;;
62941;SDS011;49042;47.318;19.874;2022-09-03T12:03:23;6.07;;;2.70;;
62941;SDS011;49042;47.318;19.874;2022-09-03T12:16:59;10.13;;;2.45;;
62941;SDS011;49042;47.318;19.874;2022-09-03T12:20:13;6.78;;;2.60;;
62941;SDS011;49042;47.318;19.874;2022-09-03T12:23:26;3.42;;;2.20;;
62941;SDS011;49042;47.318;19.874;2022-09-03T12:26:37;5.28;;;2.55;;
62941;SDS011;49042;47.318;19.874;2022-09-03T12:29:58;3.70;;;2.20;;
62941;SDS011;49042;47.318;19.874;2022-09-03T12:33:02;3.90;;;1.80;;
62941;SDS011;49042;47.318;19.874;2022-09-03T12:36:07;5.75;;;2.15;;
62941;SDS011;49042;47.318;19.874;2022-09-03T12:39:17;4.07;;;2.17;;
62941;SDS011;49042;47.318;19.874;2022-09-03T12:42:40;11.65;;;1.98;;
62941;SDS011;49042;47.318;19.874;2022-09-03T12:45:46;3.83;;;2.00;;
62941;SDS011;49042;47.318;19.874;2022-09-03T12:49:13;6.80;;;2.95;;
62941;SDS011;49042;47.318;19.874;2022-09-03T12:58:58;9.38;;;2.30;;
62941;SDS011;49042;47.318;19.874;2022-09-03T13:02:13;9.68;;;2.20;;
62941;SDS011;49042;47.318;19.874;2022-09-03T13:05:47;4.28;;;1.90;;
62941;SDS011;49042;47.318;19.874;2022-09-03T13:09:05;6.57;;;1.90;;
62941;SDS011;49042;47.318;19.874;2022-09-03T13:12:20;7.65;;;1.90;;
62941;SDS011;49042;47.318;19.874;2022-09-03T13:15:31;3.42;;;1.85;;
62941;SDS011;49042;47.318;19.874;2022-09-03T13:22:04;12.60;;;2.28;;
62941;SDS011;49042;47.318;19.874;2022-09-03T13:25:23;5.90;;;1.90;;
62941;SDS011;49042;47.318;19.874;2022-09-03T13:28:54;5.25;;;1.90;;
62941;SDS011;49042;47.318;19.874;2022-09-03T13:32:19;3.47;;;2.00;;
62941;SDS011;49042;47.318;19.874;2022-09-03T13:35:27;7.82;;;2.47;;
62941;SDS011;49042;47.318;19.874;2022-09-03T13:41:51;4.43;;;1.98;;
62941;SDS011;49042;47.318;19.874;2022-09-03T13:45:02;3.67;;;2.20;;
62941;SDS011;49042;47.318;19.874;2022-09-03T13:48:23;6.87;;;2.00;;
62941;SDS011;49042;47.318;19.874;2022-09-03T13:51:57;5.55;;;2.03;;
62941;SDS011;49042;47.318;19.874;2022-09-03T13:55:25;7.53;;;2.55;;
62941;SDS011;49042;47.318;19.874;2022-09-03T14:08:31;4.82;;;2.00;;
62941;SDS011;49042;47.318;19.874;2022-09-03T14:12:04;10.40;;;2.00;;
62941;SDS011;49042;47.318;19.874;2022-09-03T14:15:26;11.93;;;2.42;;
62941;SDS011;49042;47.318;19.874;2022-09-03T14:25:17;10.65;;;2.42;;
62941;SDS011;49042;47.318;19.874;2022-09-03T14:28:27;7.68;;;2.30;;
62941;SDS011;49042;47.318;19.874;2022-09-03T14:35:27;6.25;;;2.67;;
62941;SDS011;49042;47.318;19.874;2022-09-03T14:41:52;3.75;;;2.42;;
62941;SDS011;49042;47.318;19.874;2022-09-03T14:52:28;9.75;;;2.65;;
62941;SDS011;49042;47.318;19.874;2022-09-03T15:32:35;8.50;;;2.08;;
62941;SDS011;49042;47.318;19.874;2022-09-03T15:35:51;7.47;;;2.47;;
62941;SDS011;49042;47.318;19.874;2022-09-03T15:39:11;7.28;;;2.87;;
62941;SDS011;49042;47.318;19.874;2022-09-03T15:42:30;8.25;;;3.72;;
62941;SDS011;49042;47.318;19.874;2022-09-03T15:58:30;4.85;;;2.20;;
62941;SDS011;49042;47.318;19.874;2022-09-03T16:11:38;6.80;;;2.50;;
62941;SDS011;49042;47.318;19.874;2022-09-03T16:15:06;15.00;;;4.30;;
62941;SDS011;49042;47.318;19.874;2022-09-03T16:24:51;10.60;;;5.00;;
62941;SDS011;49042;47.318;19.874;2022-09-03T16:51:53;28.12;;;3.92;;
62941;SDS011;49042;47.318;19.874;2022-09-03T16:55:02;17.80;;;3.35;;
62941;SDS011;49042;47.318;19.874;2022-09-03T16:58:54;9.40;;;3.10;;
62941;SDS011;49042;47.318;19.874;2022-09-03T17:10:51;26.35;;;3.95;;
62941;SDS011;49042;47.318;19.874;2022-09-03T17:20:58;9.90;;;3.12;;
62941;SDS011;49042;47.318;19.874;2022-09-03T17:34:28;19.02;;;4.03;;
62941;SDS011;49042;47.318;19.874;2022-09-03T17:37:32;10.75;;;2.87;;
62941;SDS011;49042;47.318;19.874;2022-09-03T17:44:16;21.42;;;3.30;;
62941;SDS011;49042;47.318;19.874;2022-09-03T17:51:26;5.22;;;2.78;;
62941;SDS011;49042;47.318;19.874;2022-09-03T17:54:37;9.30;;;3.17;;
62941;SDS011;49042;47.318;19.874;2022-09-03T17:57:44;10.55;;;2.85;;
62941;SDS011;49042;47.318;19.874;2022-09-03T18:04:23;19.92;;;3.22;;
62941;SDS011;49042;47.318;19.874;2022-09-03T18:07:43;24.63;;;4.60;;
62941;SDS011;49042;47.318;19.874;2022-09-03T18:14:08;11.07;;;4.03;;
62941;SDS011;49042;47.318;19.874;2022-09-03T18:20:40;15.07;;;4.20;;
62941;SDS011;49042;47.318;19.874;2022-09-03T18:27:59;9.85;;;4.18;;
62941;SDS011;49042;47.318;19.874;2022-09-03T18:31:26;17.75;;;4.55;;
62941;SDS011;49042;47.318;19.874;2022-09-03T18:34:46;11.55;;;3.70;;
62941;SDS011;49042;47.318;19.874;2022-09-03T18:38:07;11.98;;;3.58;;
62941;SDS011;49042;47.318;19.874;2022-09-03T18:49:25;5.75;;;3.28;;
62941;SDS011;49042;47.318;19.874;2022-09-03T18:56:48;8.43;;;3.17;;
62941;SDS011;49042;47.318;19.874;2022-09-03T19:04:18;11.07;;;3.45;;
62941;SDS011;49042;47.318;19.874;2022-09-03T19:18:40;8.85;;;3.25;;
62941;SDS011;49042;47.318;19.874;2022-09-03T19:22:27;6.68;;;3.40;;
62941;SDS011;49042;47.318;19.874;2022-09-03T19:25:53;13.95;;;4.10;;
62941;SDS011;49042;47.318;19.874;2022-09-03T19:29:25;7.18;;;3.28;;
62941;SDS011;49042;47.318;19.874;2022-09-03T19:36:55;6.30;;;3.87;;
62941;SDS011;49042;47.318;19.874;2022-09-03T19:40:29;7.18;;;3.47;;
62941;SDS011;49042;47.318;19.874;2022-09-03T19:48:00;9.63;;;3.75;;
62941;SDS011;49042;47.318;19.874;2022-09-03T19:51:44;9.13;;;3.60;;
62941;SDS011;49042;47.318;19.874;2022-09-03T19:55:23;6.55;;;3.45;;
62941;SDS011;49042;47.318;19.874;2022-09-03T19:58:50;7.35;;;3.33;;
62941;SDS011;49042;47.318;19.874;2022-09-03T20:02:15;14.07;;;3.95;;
62941;SDS011;49042;47.318;19.874;2022-09-03T20:05:36;7.87;;;4.03;;
62941;SDS011;49042;47.318;19.874;2022-09-03T20:09:03;8.13;;;4.10;;
62941;SDS011;49042;47.318;19.874;2022-09-03T20:12:30;12.57;;;4.45;;
62941;SDS011;49042;47.318;19.874;2022-09-03T20:18:57;8.02;;;3.70;;
62941;SDS011;49042;47.318;19.874;2022-09-03T20:36:03;8.07;;;3.60;;
62941;SDS011;49042;47.318;19.874;2022-09-03T20:42:47;15.98;;;3.65;;
62941;SDS011;49042;47.318;19.874;2022-09-03T20:56:14;6.03;;;3.53;;
62941;SDS011;49042;47.318;19.874;2022-09-03T20:59:34;5.95;;;3.60;;
62941;SDS011;49042;47.318;19.874;2022-09-03T21:03:06;5.03;;;3.35;;
62941;SDS011;49042;47.318;19.874;2022-09-03T21:10:00;8.20;;;3.97;;
62941;SDS011;49042;47.318;19.874;2022-09-03T21:23:20;15.13;;;3.75;;
62941;SDS011;49042;47.318;19.874;2022-09-03T21:26:26;8.07;;;4.00;;
62941;SDS011;49042;47.318;19.874;2022-09-03T21:29:36;6.28;;;3.78;;
62941;SDS011;49042;47.318;19.874;2022-09-03T21:32:49;7.87;;;3.72;;
62941;SDS011;49042;47.318;19.874;2022-09-03T21:36:27;9.57;;;4.15;;
62941;SDS011;49042;47.318;19.874;2022-09-03T21:39:30;5.40;;;3.40;;
62941;SDS011;49042;47.318;19.874;2022-09-03T21:42:43;7.37;;;3.95;;
62941;SDS011;49042;47.318;19.874;2022-09-03T21:46:06;6.00;;;3.92;;
62941;SDS011;49042;47.318;19.874;2022-09-03T21:49:16;6.80;;;3.72;;
62941;SDS011;49042;47.318;19.874;2022-09-03T21:52:32;6.72;;;3.92;;
62941;SDS011;49042;47.318;19.874;2022-09-03T22:02:41;11.88;;;3.97;;
62941;SDS011;49042;47.318;19.874;2022-09-03T22:05:52;5.07;;;3.72;;
62941;SDS011;49042;47.318;19.874;2022-09-03T22:12:28;7.97;;;4.30;;
62941;SDS011;49042;47.318;19.874;2022-09-03T22:15:42;7.85;;;4.12;;
62941;SDS011;49042;47.318;19.874;2022-09-03T22:18:52;6.80;;;4.32;;
62941;SDS011;49042;47.318;19.874;2022-09-03T22:21:56;5.97;;;3.83;;
62941;SDS011;49042;47.318;19.874;2022-09-03T22:25:14;8.23;;;4.40;;
62941;SDS011;49042;47.318;19.874;2022-09-03T22:42:13;7.50;;;4.55;;
62941;SDS011;49042;47.318;19.874;2022-09-03T22:55:40;8.23;;;4.07;;
62941;SDS011;49042;47.318;19.874;2022-09-03T22:58:58;5.80;;;4.10;;
62941;SDS011;49042;47.318;19.874;2022-09-03T23:02:11;6.07;;;3.90;;
62941;SDS011;49042;47.318;19.874;2022-09-03T23:05:31;6.82;;;4.07;;
62941;SDS011;49042;47.318;19.874;2022-09-03T23:08:40;8.32;;;4.65;;
62941;SDS011;49042;47.318;19.874;2022-09-03T23:11:50;7.43;;;4.70;;
62941;SDS011;49042;47.318;19.874;2022-09-03T23:14:57;11.18;;;4.80;;
62941;SDS011;49042;47.318;19.874;2022-09-03T23:18:16;6.90;;;4.57;;
62941;SDS011;49042;47.318;19.874;2022-09-03T23:21:48;8.40;;;5.82;;
62941;SDS011;49042;47.318;19.874;2022-09-03T23:28:25;9.88;;;6.20;;
62941;SDS011;49042;47.318;19.874;2022-09-03T23:31:33;12.48;;;6.32;;
62941;SDS011;49042;47.318;19.874;2022-09-03T23:34:35;7.15;;;5.57;;
62941;SDS011;49042;47.318;19.874;2022-09-03T23:37:52;7.40;;;5.03;;
62941;SDS011;49042;47.318;19.874;2022-09-03T23:41:03;10.93;;;5.00;;
62941;SDS011;49042;47.318;19.874;2022-09-03T23:47:38;9.18;;;5.50;;
62941;SDS011;49042;47.318;19.874;2022-09-03T23:57:39;16.67;;;5.70;;
